sensor_id;sensor_type;location;lat;lon;timestamp;P1;durP1;ratioP1;P2;durP2;ratioP2
11839;SDS011;5979;50.800;4.904;2023-05-07T00:01:45;5.68;;;4.90;;
11839;SDS011;5979;50.800;4.904;2023-05-07T00:04:11;6.00;;;5.55;;
11839;SDS011;5979;50.800;4.904;2023-05-07T00:06:36;5.72;;;4.55;;
11839;SDS011;5979;50.800;4.904;2023-05-07T00:09:02;4.47;;;4.18;;
11839;SDS011;5979;50.800;4.904;2023-05-07T00:11:29;4.45;;;4.05;;
11839;SDS011;5979;50.800;4.904;2023-05-07T00:13:54;3.88;;;3.67;;
11839;SDS011;5979;50.800;4.904;2023-05-07T00:16:20;5.15;;;4.68;;
11839;SDS011;5979;50.800;4.904;2023-05-07T00:18:46;5.15;;;4.65;;
11839;SDS011;5979;50.800;4.904;2023-05-07T00:21:11;4.43;;;3.65;;
11839;SDS011;5979;50.800;4.904;2023-05-07T00:23:37;4.10;;;3.80;;
11839;SDS011;5979;50.800;4.904;2023-05-07T00:26:03;4.72;;;4.30;;
11839;SDS011;5979;50.800;4.904;2023-05-07T00:28:29;5.45;;;4.90;;
11839;SDS011;5979;50.800;4.904;2023-05-07T00:30:54;5.38;;;4.82;;
11839;SDS011;5979;50.800;4.904;2023-05-07T00:33:20;5.75;;;5.18;;
11839;SDS011;5979;50.800;4.904;2023-05-07T00:35:47;4.40;;;4.00;;
11839;SDS011;5979;50.800;4.904;2023-05-07T00:38:13;5.05;;;4.55;;
11839;SDS011;5979;50.800;4.904;2023-05-07T00:40:39;5.70;;;5.05;;
11839;SDS011;5979;50.800;4.904;2023-05-07T00:43:04;5.75;;;5.18;;
11839;SDS011;5979;50.800;4.904;2023-05-07T00:45:30;5.85;;;5.30;;
11839;SDS011;5979;50.800;4.904;2023-05-07T00:48:00;5.03;;;4.30;;
11839;SDS011;5979;50.800;4.904;2023-05-07T00:50:27;6.10;;;4.65;;
11839;SDS011;5979;50.800;4.904;2023-05-07T00:52:54;4.38;;;3.97;;
11839;SDS011;5979;50.800;4.904;2023-05-07T00:55:21;5.13;;;4.30;;
11839;SDS011;5979;50.800;4.904;2023-05-07T00:57:47;5.32;;;4.50;;
11839;SDS011;5979;50.800;4.904;2023-05-07T01:00:14;5.18;;;4.70;;
11839;SDS011;5979;50.800;4.904;2023-05-07T01:02:40;6.28;;;5.40;;
11839;SDS011;5979;50.800;4.904;2023-05-07T01:05:07;6.55;;;6.03;;
11839;SDS011;5979;50.800;4.904;2023-05-07T01:07:37;5.53;;;5.18;;
11839;SDS011;5979;50.800;4.904;2023-05-07T01:10:04;4.93;;;4.53;;
11839;SDS011;5979;50.800;4.904;2023-05-07T01:12:31;5.55;;;5.10;;
11839;SDS011;5979;50.800;4.904;2023-05-07T01:14:57;4.50;;;4.15;;
11839;SDS011;5979;50.800;4.904;2023-05-07T01:17:23;6.13;;;5.47;;
11839;SDS011;5979;50.800;4.904;2023-05-07T01:19:49;6.10;;;4.75;;
11839;SDS011;5979;50.800;4.904;2023-05-07T01:22:16;5.55;;;5.05;;
11839;SDS011;5979;50.800;4.904;2023-05-07T01:24:58;7.88;;;5.20;;
11839;SDS011;5979;50.800;4.904;2023-05-07T01:27:26;5.22;;;4.72;;
11839;SDS011;5979;50.800;4.904;2023-05-07T01:29:52;5.13;;;4.70;;
11839;SDS011;5979;50.800;4.904;2023-05-07T01:32:18;4.70;;;4.40;;
11839;SDS011;5979;50.800;4.904;2023-05-07T01:34:50;5.20;;;4.78;;
11839;SDS011;5979;50.800;4.904;2023-05-07T01:37:17;5.50;;;5.20;;
11839;SDS011;5979;50.800;4.904;2023-05-07T01:39:43;6.22;;;5.82;;
11839;SDS011;5979;50.800;4.904;2023-05-07T01:42:10;7.75;;;6.85;;
11839;SDS011;5979;50.800;4.904;2023-05-07T01:44:35;6.50;;;5.82;;
11839;SDS011;5979;50.800;4.904;2023-05-07T01:47:01;9.40;;;6.25;;
11839;SDS011;5979;50.800;4.904;2023-05-07T01:49:27;5.80;;;5.30;;
11839;SDS011;5979;50.800;4.904;2023-05-07T01:51:53;7.78;;;5.80;;
11839;SDS011;5979;50.800;4.904;2023-05-07T01:54:21;6.70;;;6.05;;
11839;SDS011;5979;50.800;4.904;2023-05-07T01:56:52;6.32;;;5.82;;
11839;SDS011;5979;50.800;4.904;2023-05-07T01:59:18;6.45;;;5.70;;
11839;SDS011;5979;50.800;4.904;2023-05-07T02:01:44;6.68;;;6.07;;
11839;SDS011;5979;50.800;4.904;2023-05-07T02:04:09;6.07;;;5.25;;
11839;SDS011;5979;50.800;4.904;2023-05-07T02:06:35;6.53;;;6.03;;
11839;SDS011;5979;50.800;4.904;2023-05-07T02:09:01;6.05;;;5.50;;
11839;SDS011;5979;50.800;4.904;2023-05-07T02:11:26;5.72;;;5.15;;
11839;SDS011;5979;50.800;4.904;2023-05-07T02:13:52;7.03;;;6.43;;
11839;SDS011;5979;50.800;4.904;2023-05-07T02:16:18;7.00;;;6.40;;
11839;SDS011;5979;50.800;4.904;2023-05-07T02:18:44;6.97;;;6.22;;
11839;SDS011;5979;50.800;4.904;2023-05-07T02:21:10;6.53;;;6.03;;
11839;SDS011;5979;50.800;4.904;2023-05-07T02:23:36;6.35;;;5.75;;
11839;SDS011;5979;50.800;4.904;2023-05-07T02:26:01;7.30;;;6.63;;
11839;SDS011;5979;50.800;4.904;2023-05-07T02:28:28;6.45;;;5.95;;
11839;SDS011;5979;50.800;4.904;2023-05-07T02:30:54;6.22;;;5.70;;
11839;SDS011;5979;50.800;4.904;2023-05-07T02:33:19;6.10;;;5.50;;
11839;SDS011;5979;50.800;4.904;2023-05-07T02:35:45;6.35;;;5.75;;
11839;SDS011;5979;50.800;4.904;2023-05-07T02:38:11;5.82;;;5.28;;
11839;SDS011;5979;50.800;4.904;2023-05-07T02:40:36;7.15;;;6.25;;
11839;SDS011;5979;50.800;4.904;2023-05-07T02:43:05;6.95;;;6.25;;
11839;SDS011;5979;50.800;4.904;2023-05-07T02:45:31;5.78;;;5.30;;
11839;SDS011;5979;50.800;4.904;2023-05-07T02:47:57;6.38;;;5.70;;
11839;SDS011;5979;50.800;4.904;2023-05-07T02:50:23;6.88;;;5.78;;
11839;SDS011;5979;50.800;4.904;2023-05-07T02:52:50;7.45;;;6.60;;
11839;SDS011;5979;50.800;4.904;2023-05-07T02:55:16;6.38;;;5.88;;
11839;SDS011;5979;50.800;4.904;2023-05-07T02:57:41;7.57;;;6.22;;
11839;SDS011;5979;50.800;4.904;2023-05-07T03:00:17;6.45;;;5.80;;
11839;SDS011;5979;50.800;4.904;2023-05-07T03:02:44;8.95;;;6.63;;
11839;SDS011;5979;50.800;4.904;2023-05-07T03:05:10;6.18;;;5.68;;
11839;SDS011;5979;50.800;4.904;2023-05-07T03:07:36;8.77;;;6.88;;
11839;SDS011;5979;50.800;4.904;2023-05-07T03:10:03;6.95;;;6.45;;
11839;SDS011;5979;50.800;4.904;2023-05-07T03:12:29;7.00;;;6.30;;
11839;SDS011;5979;50.800;4.904;2023-05-07T03:14:56;6.22;;;5.63;;
11839;SDS011;5979;50.800;4.904;2023-05-07T03:17:21;5.53;;;5.10;;
11839;SDS011;5979;50.800;4.904;2023-05-07T03:19:47;6.82;;;6.15;;
11839;SDS011;5979;50.800;4.904;2023-05-07T03:22:13;5.85;;;5.35;;
11839;SDS011;5979;50.800;4.904;2023-05-07T03:24:39;7.72;;;7.10;;
11839;SDS011;5979;50.800;4.904;2023-05-07T03:27:05;6.43;;;5.90;;
11839;SDS011;5979;50.800;4.904;2023-05-07T03:29:30;7.72;;;7.05;;
11839;SDS011;5979;50.800;4.904;2023-05-07T03:31:56;6.72;;;6.22;;
11839;SDS011;5979;50.800;4.904;2023-05-07T03:34:22;6.95;;;6.28;;
11839;SDS011;5979;50.800;4.904;2023-05-07T03:36:48;5.43;;;5.05;;
11839;SDS011;5979;50.800;4.904;2023-05-07T03:39:14;6.35;;;5.75;;
11839;SDS011;5979;50.800;4.904;2023-05-07T03:41:40;5.80;;;5.30;;
11839;SDS011;5979;50.800;4.904;2023-05-07T03:44:05;7.68;;;6.45;;
11839;SDS011;5979;50.800;4.904;2023-05-07T03:46:31;7.15;;;6.45;;
11839;SDS011;5979;50.800;4.904;2023-05-07T03:48:57;7.55;;;6.70;;
11839;SDS011;5979;50.800;4.904;2023-05-07T03:51:23;7.15;;;6.07;;
11839;SDS011;5979;50.800;4.904;2023-05-07T03:53:50;6.60;;;5.95;;
11839;SDS011;5979;50.800;4.904;2023-05-07T03:56:18;7.30;;;6.60;;
11839;SDS011;5979;50.800;4.904;2023-05-07T03:58:44;6.30;;;5.80;;
11839;SDS011;5979;50.800;4.904;2023-05-07T04:01:10;6.22;;;5.68;;
11839;SDS011;5979;50.800;4.904;2023-05-07T04:03:36;8.18;;;6.93;;
11839;SDS011;5979;50.800;4.904;2023-05-07T04:06:02;7.32;;;6.68;;
11839;SDS011;5979;50.800;4.904;2023-05-07T04:08:27;5.82;;;5.32;;
11839;SDS011;5979;50.800;4.904;2023-05-07T04:10:56;6.75;;;6.25;;
11839;SDS011;5979;50.800;4.904;2023-05-07T04:13:23;6.90;;;6.30;;
11839;SDS011;5979;50.800;4.904;2023-05-07T04:15:49;6.72;;;6.18;;
11839;SDS011;5979;50.800;4.904;2023-05-07T04:18:15;6.55;;;5.95;;
11839;SDS011;5979;50.800;4.904;2023-05-07T04:20:41;6.97;;;6.32;;
11839;SDS011;5979;50.800;4.904;2023-05-07T04:23:07;6.75;;;6.15;;
11839;SDS011;5979;50.800;4.904;2023-05-07T04:25:33;6.57;;;5.97;;
11839;SDS011;5979;50.800;4.904;2023-05-07T04:27:58;6.80;;;6.15;;
11839;SDS011;5979;50.800;4.904;2023-05-07T04:30:24;7.20;;;5.90;;
11839;SDS011;5979;50.800;4.904;2023-05-07T04:32:50;6.13;;;5.65;;
11839;SDS011;5979;50.800;4.904;2023-05-07T04:35:16;5.82;;;5.43;;
11839;SDS011;5979;50.800;4.904;2023-05-07T04:37:42;6.30;;;5.70;;
11839;SDS011;5979;50.800;4.904;2023-05-07T04:40:08;7.93;;;5.63;;
11839;SDS011;5979;50.800;4.904;2023-05-07T04:42:34;6.40;;;5.80;;
11839;SDS011;5979;50.800;4.904;2023-05-07T04:45:00;5.50;;;4.97;;
11839;SDS011;5979;50.800;4.904;2023-05-07T04:47:27;6.47;;;6.03;;
11839;SDS011;5979;50.800;4.904;2023-05-07T04:49:52;6.97;;;5.80;;
11839;SDS011;5979;50.800;4.904;2023-05-07T04:52:18;6.07;;;5.57;;
11839;SDS011;5979;50.800;4.904;2023-05-07T04:54:44;6.25;;;5.68;;
11839;SDS011;5979;50.800;4.904;2023-05-07T04:57:09;6.20;;;5.65;;
11839;SDS011;5979;50.800;4.904;2023-05-07T04:59:35;6.38;;;5.97;;
11839;SDS011;5979;50.800;4.904;2023-05-07T05:02:01;7.68;;;6.47;;
11839;SDS011;5979;50.800;4.904;2023-05-07T05:04:29;6.57;;;6.03;;
11839;SDS011;5979;50.800;4.904;2023-05-07T05:06:55;7.88;;;7.10;;
11839;SDS011;5979;50.800;4.904;2023-05-07T05:09:21;7.38;;;6.85;;
11839;SDS011;5979;50.800;4.904;2023-05-07T05:11:47;6.55;;;6.05;;
11839;SDS011;5979;50.800;4.904;2023-05-07T05:14:12;6.65;;;5.90;;
11839;SDS011;5979;50.800;4.904;2023-05-07T05:16:38;7.65;;;6.55;;
11839;SDS011;5979;50.800;4.904;2023-05-07T05:19:04;7.53;;;7.00;;
11839;SDS011;5979;50.800;4.904;2023-05-07T05:21:30;8.18;;;7.47;;
11839;SDS011;5979;50.800;4.904;2023-05-07T05:23:56;7.10;;;6.50;;
11839;SDS011;5979;50.800;4.904;2023-05-07T05:26:22;7.38;;;6.60;;
11839;SDS011;5979;50.800;4.904;2023-05-07T05:28:47;7.07;;;6.47;;
11839;SDS011;5979;50.800;4.904;2023-05-07T05:31:13;7.90;;;5.90;;
11839;SDS011;5979;50.800;4.904;2023-05-07T05:33:39;7.38;;;6.68;;
11839;SDS011;5979;50.800;4.904;2023-05-07T05:36:05;6.78;;;6.25;;
11839;SDS011;5979;50.800;4.904;2023-05-07T05:38:31;7.82;;;6.15;;
11839;SDS011;5979;50.800;4.904;2023-05-07T05:40:57;8.43;;;7.63;;
11839;SDS011;5979;50.800;4.904;2023-05-07T05:43:22;8.73;;;6.97;;
11839;SDS011;5979;50.800;4.904;2023-05-07T05:45:48;7.57;;;6.78;;
11839;SDS011;5979;50.800;4.904;2023-05-07T05:48:14;6.57;;;5.88;;
11839;SDS011;5979;50.800;4.904;2023-05-07T05:50:41;6.70;;;6.20;;
11839;SDS011;5979;50.800;4.904;2023-05-07T05:53:07;8.05;;;7.20;;
11839;SDS011;5979;50.800;4.904;2023-05-07T05:55:33;7.10;;;6.40;;
11839;SDS011;5979;50.800;4.904;2023-05-07T05:58:00;8.20;;;7.40;;
11839;SDS011;5979;50.800;4.904;2023-05-07T06:00:25;7.03;;;6.45;;
11839;SDS011;5979;50.800;4.904;2023-05-07T06:02:52;6.40;;;5.90;;
11839;SDS011;5979;50.800;4.904;2023-05-07T06:05:17;7.57;;;6.97;;
11839;SDS011;5979;50.800;4.904;2023-05-07T06:07:43;8.80;;;7.05;;
11839;SDS011;5979;50.800;4.904;2023-05-07T06:10:09;7.82;;;7.20;;
11839;SDS011;5979;50.800;4.904;2023-05-07T06:12:34;8.00;;;7.40;;
11839;SDS011;5979;50.800;4.904;2023-05-07T06:15:00;7.43;;;6.82;;
11839;SDS011;5979;50.800;4.904;2023-05-07T06:17:26;7.35;;;6.65;;
11839;SDS011;5979;50.800;4.904;2023-05-07T06:19:52;7.18;;;6.47;;
11839;SDS011;5979;50.800;4.904;2023-05-07T06:22:18;6.45;;;5.95;;
11839;SDS011;5979;50.800;4.904;2023-05-07T06:24:44;5.60;;;5.18;;
11839;SDS011;5979;50.800;4.904;2023-05-07T06:27:10;6.93;;;6.15;;
11839;SDS011;5979;50.800;4.904;2023-05-07T06:29:35;7.30;;;5.88;;
11839;SDS011;5979;50.800;4.904;2023-05-07T06:32:08;5.20;;;4.78;;
11839;SDS011;5979;50.800;4.904;2023-05-07T06:34:34;6.82;;;6.22;;
11839;SDS011;5979;50.800;4.904;2023-05-07T06:37:00;6.63;;;6.03;;
11839;SDS011;5979;50.800;4.904;2023-05-07T06:39:26;9.00;;;7.18;;
11839;SDS011;5979;50.800;4.904;2023-05-07T06:41:52;9.23;;;8.20;;
11839;SDS011;5979;50.800;4.904;2023-05-07T06:44:18;9.15;;;7.03;;
11839;SDS011;5979;50.800;4.904;2023-05-07T06:46:43;9.40;;;7.47;;
11839;SDS011;5979;50.800;4.904;2023-05-07T06:49:10;8.32;;;7.63;;
11839;SDS011;5979;50.800;4.904;2023-05-07T06:51:36;11.57;;;8.00;;
11839;SDS011;5979;50.800;4.904;2023-05-07T06:54:01;8.63;;;7.72;;
11839;SDS011;5979;50.800;4.904;2023-05-07T06:56:29;7.95;;;6.85;;
11839;SDS011;5979;50.800;4.904;2023-05-07T06:58:55;8.50;;;7.70;;
11839;SDS011;5979;50.800;4.904;2023-05-07T07:01:21;7.88;;;6.97;;
11839;SDS011;5979;50.800;4.904;2023-05-07T07:03:46;7.82;;;7.07;;
11839;SDS011;5979;50.800;4.904;2023-05-07T07:06:12;11.10;;;7.43;;
11839;SDS011;5979;50.800;4.904;2023-05-07T07:08:38;8.60;;;7.72;;
11839;SDS011;5979;50.800;4.904;2023-05-07T07:11:04;8.30;;;7.35;;
11839;SDS011;5979;50.800;4.904;2023-05-07T07:13:30;7.97;;;6.50;;
11839;SDS011;5979;50.800;4.904;2023-05-07T07:15:56;8.38;;;6.07;;
11839;SDS011;5979;50.800;4.904;2023-05-07T07:18:22;7.47;;;5.93;;
11839;SDS011;5979;50.800;4.904;2023-05-07T07:20:47;6.35;;;5.60;;
11839;SDS011;5979;50.800;4.904;2023-05-07T07:23:13;7.68;;;5.15;;
11839;SDS011;5979;50.800;4.904;2023-05-07T07:25:39;7.93;;;4.63;;
11839;SDS011;5979;50.800;4.904;2023-05-07T07:28:05;5.75;;;4.88;;
11839;SDS011;5979;50.800;4.904;2023-05-07T07:30:31;6.72;;;4.80;;
11839;SDS011;5979;50.800;4.904;2023-05-07T07:32:57;6.75;;;4.50;;
11839;SDS011;5979;50.800;4.904;2023-05-07T07:35:27;5.63;;;4.43;;
11839;SDS011;5979;50.800;4.904;2023-05-07T07:37:56;7.30;;;4.85;;
11839;SDS011;5979;50.800;4.904;2023-05-07T07:40:22;9.50;;;4.88;;
11839;SDS011;5979;50.800;4.904;2023-05-07T07:42:48;8.88;;;4.70;;
11839;SDS011;5979;50.800;4.904;2023-05-07T07:45:14;4.85;;;3.90;;
11839;SDS011;5979;50.800;4.904;2023-05-07T07:47:40;5.93;;;3.80;;
11839;SDS011;5979;50.800;4.904;2023-05-07T07:50:06;4.60;;;4.15;;
11839;SDS011;5979;50.800;4.904;2023-05-07T07:52:32;5.28;;;3.58;;
11839;SDS011;5979;50.800;4.904;2023-05-07T07:54:58;4.85;;;3.42;;
11839;SDS011;5979;50.800;4.904;2023-05-07T07:57:24;5.22;;;3.60;;
11839;SDS011;5979;50.800;4.904;2023-05-07T07:59:50;5.40;;;3.15;;
11839;SDS011;5979;50.800;4.904;2023-05-07T08:02:16;3.92;;;3.30;;
11839;SDS011;5979;50.800;4.904;2023-05-07T08:04:42;3.95;;;3.42;;
11839;SDS011;5979;50.800;4.904;2023-05-07T08:07:11;5.97;;;3.30;;
11839;SDS011;5979;50.800;4.904;2023-05-07T08:09:38;4.60;;;3.30;;
11839;SDS011;5979;50.800;4.904;2023-05-07T08:12:05;4.82;;;3.55;;
11839;SDS011;5979;50.800;4.904;2023-05-07T08:14:31;4.80;;;3.30;;
11839;SDS011;5979;50.800;4.904;2023-05-07T08:16:56;4.40;;;3.28;;
11839;SDS011;5979;50.800;4.904;2023-05-07T08:19:22;7.82;;;3.63;;
11839;SDS011;5979;50.800;4.904;2023-05-07T08:21:48;4.03;;;3.28;;
11839;SDS011;5979;50.800;4.904;2023-05-07T08:24:14;4.65;;;3.15;;
11839;SDS011;5979;50.800;4.904;2023-05-07T08:26:40;5.35;;;3.55;;
11839;SDS011;5979;50.800;4.904;2023-05-07T08:29:06;6.07;;;3.50;;
11839;SDS011;5979;50.800;4.904;2023-05-07T08:31:32;5.80;;;3.35;;
11839;SDS011;5979;50.800;4.904;2023-05-07T08:33:58;6.13;;;3.50;;
11839;SDS011;5979;50.800;4.904;2023-05-07T08:36:24;4.97;;;3.25;;
11839;SDS011;5979;50.800;4.904;2023-05-07T08:38:53;7.97;;;3.65;;
11839;SDS011;5979;50.800;4.904;2023-05-07T08:41:19;6.68;;;3.47;;
11839;SDS011;5979;50.800;4.904;2023-05-07T08:43:49;3.53;;;2.80;;
11839;SDS011;5979;50.800;4.904;2023-05-07T08:46:22;5.30;;;3.47;;
11839;SDS011;5979;50.800;4.904;2023-05-07T08:48:48;2.90;;;2.70;;
11839;SDS011;5979;50.800;4.904;2023-05-07T08:51:16;4.50;;;3.00;;
11839;SDS011;5979;50.800;4.904;2023-05-07T08:53:46;6.35;;;3.15;;
11839;SDS011;5979;50.800;4.904;2023-05-07T08:56:16;4.05;;;2.88;;
11839;SDS011;5979;50.800;4.904;2023-05-07T08:58:42;5.28;;;2.80;;
11839;SDS011;5979;50.800;4.904;2023-05-07T09:01:09;2.60;;;2.40;;
11839;SDS011;5979;50.800;4.904;2023-05-07T09:03:38;5.70;;;2.67;;
11839;SDS011;5979;50.800;4.904;2023-05-07T09:06:04;4.22;;;2.58;;
11839;SDS011;5979;50.800;4.904;2023-05-07T09:08:32;2.17;;;2.03;;
11839;SDS011;5979;50.800;4.904;2023-05-07T09:10:58;2.53;;;2.30;;
11839;SDS011;5979;50.800;4.904;2023-05-07T09:13:25;2.78;;;2.45;;
11839;SDS011;5979;50.800;4.904;2023-05-07T09:15:52;3.95;;;2.38;;
11839;SDS011;5979;50.800;4.904;2023-05-07T09:18:18;3.38;;;2.40;;
11839;SDS011;5979;50.800;4.904;2023-05-07T09:20:44;2.97;;;2.65;;
11839;SDS011;5979;50.800;4.904;2023-05-07T09:23:09;2.85;;;2.40;;
11839;SDS011;5979;50.800;4.904;2023-05-07T09:25:35;4.57;;;2.33;;
11839;SDS011;5979;50.800;4.904;2023-05-07T09:28:02;3.75;;;2.28;;
11839;SDS011;5979;50.800;4.904;2023-05-07T09:30:31;2.70;;;2.50;;
11839;SDS011;5979;50.800;4.904;2023-05-07T09:32:57;4.07;;;2.28;;
11839;SDS011;5979;50.800;4.904;2023-05-07T09:35:24;4.20;;;2.45;;
11839;SDS011;5979;50.800;4.904;2023-05-07T09:37:56;5.38;;;2.45;;
11839;SDS011;5979;50.800;4.904;2023-05-07T09:40:23;4.43;;;2.55;;
11839;SDS011;5979;50.800;4.904;2023-05-07T09:42:51;2.50;;;2.25;;
11839;SDS011;5979;50.800;4.904;2023-05-07T09:45:24;3.47;;;2.10;;
11839;SDS011;5979;50.800;4.904;2023-05-07T09:47:53;2.40;;;2.20;;
11839;SDS011;5979;50.800;4.904;2023-05-07T09:50:22;3.88;;;2.33;;
11839;SDS011;5979;50.800;4.904;2023-05-07T09:52:52;3.03;;;2.50;;
11839;SDS011;5979;50.800;4.904;2023-05-07T09:55:20;3.42;;;2.33;;
11839;SDS011;5979;50.800;4.904;2023-05-07T09:57:48;2.30;;;1.90;;
11839;SDS011;5979;50.800;4.904;2023-05-07T10:00:15;5.07;;;2.67;;
11839;SDS011;5979;50.800;4.904;2023-05-07T10:02:44;3.72;;;2.40;;
11839;SDS011;5979;50.800;4.904;2023-05-07T10:05:13;3.42;;;2.90;;
11839;SDS011;5979;50.800;4.904;2023-05-07T10:07:40;3.75;;;2.50;;
11839;SDS011;5979;50.800;4.904;2023-05-07T10:10:06;3.03;;;2.55;;
11839;SDS011;5979;50.800;4.904;2023-05-07T10:12:32;3.58;;;2.25;;
11839;SDS011;5979;50.800;4.904;2023-05-07T10:15:04;3.63;;;3.00;;
11839;SDS011;5979;50.800;4.904;2023-05-07T10:17:37;3.47;;;2.80;;
11839;SDS011;5979;50.800;4.904;2023-05-07T10:20:07;3.38;;;2.75;;
11839;SDS011;5979;50.800;4.904;2023-05-07T10:22:43;2.97;;;2.72;;
11839;SDS011;5979;50.800;4.904;2023-05-07T10:25:20;2.83;;;2.42;;
11839;SDS011;5979;50.800;4.904;2023-05-07T10:27:48;3.35;;;2.50;;
11839;SDS011;5979;50.800;4.904;2023-05-07T10:32:57;4.10;;;2.58;;
11839;SDS011;5979;50.800;4.904;2023-05-07T10:35:31;2.60;;;2.40;;
11839;SDS011;5979;50.800;4.904;2023-05-07T10:38:01;4.20;;;2.80;;
11839;SDS011;5979;50.800;4.904;2023-05-07T10:40:27;3.13;;;2.80;;
11839;SDS011;5979;50.800;4.904;2023-05-07T10:42:59;3.97;;;2.75;;
11839;SDS011;5979;50.800;4.904;2023-05-07T10:45:27;2.80;;;2.55;;
11839;SDS011;5979;50.800;4.904;2023-05-07T10:48:12;5.05;;;3.28;;
11839;SDS011;5979;50.800;4.904;2023-05-07T10:50:40;2.40;;;2.15;;
11839;SDS011;5979;50.800;4.904;2023-05-07T11:00:49;3.50;;;2.95;;
11839;SDS011;5979;50.800;4.904;2023-05-07T11:03:15;2.70;;;2.50;;
11839;SDS011;5979;50.800;4.904;2023-05-07T11:05:41;3.60;;;3.05;;
11839;SDS011;5979;50.800;4.904;2023-05-07T11:08:07;5.75;;;2.92;;
11839;SDS011;5979;50.800;4.904;2023-05-07T11:10:53;3.25;;;2.65;;
11839;SDS011;5979;50.800;4.904;2023-05-07T11:16:20;3.15;;;2.92;;
11839;SDS011;5979;50.800;4.904;2023-05-07T11:18:48;3.65;;;3.03;;
11839;SDS011;5979;50.800;4.904;2023-05-07T11:21:31;4.47;;;2.90;;
11839;SDS011;5979;50.800;4.904;2023-05-07T11:24:02;2.35;;;2.25;;
11839;SDS011;5979;50.800;4.904;2023-05-07T11:26:30;4.82;;;2.80;;
11839;SDS011;5979;50.800;4.904;2023-05-07T11:29:10;3.25;;;2.20;;
11839;SDS011;5979;50.800;4.904;2023-05-07T11:31:40;3.15;;;2.45;;
11839;SDS011;5979;50.800;4.904;2023-05-07T11:34:06;2.40;;;2.20;;
11839;SDS011;5979;50.800;4.904;2023-05-07T11:36:33;3.25;;;2.47;;
11839;SDS011;5979;50.800;4.904;2023-05-07T11:38:58;2.83;;;2.22;;
11839;SDS011;5979;50.800;4.904;2023-05-07T11:41:42;2.40;;;2.20;;
11839;SDS011;5979;50.800;4.904;2023-05-07T11:44:08;2.38;;;2.17;;
11839;SDS011;5979;50.800;4.904;2023-05-07T11:46:34;3.90;;;2.25;;
11839;SDS011;5979;50.800;4.904;2023-05-07T11:49:00;2.45;;;2.30;;
11839;SDS011;5979;50.800;4.904;2023-05-07T11:51:25;2.92;;;2.63;;
11839;SDS011;5979;50.800;4.904;2023-05-07T11:53:52;3.67;;;2.50;;
11839;SDS011;5979;50.800;4.904;2023-05-07T11:56:18;3.97;;;2.15;;
11839;SDS011;5979;50.800;4.904;2023-05-07T11:58:45;2.17;;;1.98;;
11839;SDS011;5979;50.800;4.904;2023-05-07T12:01:12;3.40;;;2.30;;
11839;SDS011;5979;50.800;4.904;2023-05-07T12:03:42;2.40;;;2.10;;
11839;SDS011;5979;50.800;4.904;2023-05-07T12:06:09;4.22;;;2.28;;
11839;SDS011;5979;50.800;4.904;2023-05-07T12:08:37;2.05;;;1.95;;
11839;SDS011;5979;50.800;4.904;2023-05-07T12:11:06;3.55;;;2.50;;
11839;SDS011;5979;50.800;4.904;2023-05-07T12:13:33;3.15;;;2.22;;
11839;SDS011;5979;50.800;4.904;2023-05-07T12:15:59;2.60;;;2.40;;
11839;SDS011;5979;50.800;4.904;2023-05-07T12:18:28;2.40;;;1.98;;
11839;SDS011;5979;50.800;4.904;2023-05-07T12:20:55;2.42;;;2.15;;
11839;SDS011;5979;50.800;4.904;2023-05-07T12:23:21;1.85;;;1.75;;
11839;SDS011;5979;50.800;4.904;2023-05-07T12:25:47;2.45;;;1.83;;
11839;SDS011;5979;50.800;4.904;2023-05-07T12:28:14;2.30;;;2.10;;
11839;SDS011;5979;50.800;4.904;2023-05-07T12:30:41;2.20;;;2.00;;
11839;SDS011;5979;50.800;4.904;2023-05-07T12:33:08;2.70;;;2.28;;
11839;SDS011;5979;50.800;4.904;2023-05-07T12:35:38;3.13;;;2.22;;
11839;SDS011;5979;50.800;4.904;2023-05-07T12:38:16;2.40;;;2.20;;
11839;SDS011;5979;50.800;4.904;2023-05-07T12:40:43;2.85;;;2.65;;
11839;SDS011;5979;50.800;4.904;2023-05-07T12:43:18;2.72;;;2.53;;
11839;SDS011;5979;50.800;4.904;2023-05-07T12:45:48;2.80;;;2.60;;
11839;SDS011;5979;50.800;4.904;2023-05-07T12:48:15;3.13;;;2.80;;
11839;SDS011;5979;50.800;4.904;2023-05-07T12:50:41;2.55;;;2.35;;
11839;SDS011;5979;50.800;4.904;2023-05-07T12:53:08;2.60;;;2.40;;
11839;SDS011;5979;50.800;4.904;2023-05-07T12:55:45;3.40;;;2.58;;
11839;SDS011;5979;50.800;4.904;2023-05-07T13:00:47;2.67;;;2.47;;
11839;SDS011;5979;50.800;4.904;2023-05-07T13:03:22;4.07;;;2.35;;
11839;SDS011;5979;50.800;4.904;2023-05-07T13:05:56;2.90;;;2.35;;
11839;SDS011;5979;50.800;4.904;2023-05-07T13:08:33;2.70;;;2.22;;
11839;SDS011;5979;50.800;4.904;2023-05-07T13:11:02;2.17;;;1.98;;
11839;SDS011;5979;50.800;4.904;2023-05-07T13:13:30;2.47;;;2.28;;
11839;SDS011;5979;50.800;4.904;2023-05-07T13:15:56;3.60;;;2.33;;
11839;SDS011;5979;50.800;4.904;2023-05-07T13:18:22;3.10;;;2.30;;
11839;SDS011;5979;50.800;4.904;2023-05-07T13:20:49;3.03;;;2.00;;
11839;SDS011;5979;50.800;4.904;2023-05-07T13:23:15;2.97;;;2.28;;
11839;SDS011;5979;50.800;4.904;2023-05-07T13:25:40;4.70;;;2.42;;
11839;SDS011;5979;50.800;4.904;2023-05-07T13:28:06;2.47;;;2.20;;
11839;SDS011;5979;50.800;4.904;2023-05-07T13:30:31;1.75;;;1.65;;
11839;SDS011;5979;50.800;4.904;2023-05-07T13:32:57;2.20;;;1.92;;
11839;SDS011;5979;50.800;4.904;2023-05-07T13:35:23;3.25;;;1.90;;
11839;SDS011;5979;50.800;4.904;2023-05-07T13:37:48;2.10;;;2.00;;
11839;SDS011;5979;50.800;4.904;2023-05-07T13:40:14;1.95;;;1.85;;
11839;SDS011;5979;50.800;4.904;2023-05-07T13:42:40;3.08;;;1.95;;
11839;SDS011;5979;50.800;4.904;2023-05-07T13:45:06;1.73;;;1.63;;
11839;SDS011;5979;50.800;4.904;2023-05-07T13:47:33;2.67;;;1.90;;
11839;SDS011;5979;50.800;4.904;2023-05-07T13:49:59;1.90;;;1.70;;
11839;SDS011;5979;50.800;4.904;2023-05-07T13:52:25;2.15;;;2.05;;
11839;SDS011;5979;50.800;4.904;2023-05-07T13:54:51;1.70;;;1.60;;
11839;SDS011;5979;50.800;4.904;2023-05-07T13:57:21;1.83;;;1.73;;
11839;SDS011;5979;50.800;4.904;2023-05-07T13:59:47;1.92;;;1.73;;
11839;SDS011;5979;50.800;4.904;2023-05-07T14:02:12;3.03;;;1.90;;
11839;SDS011;5979;50.800;4.904;2023-05-07T14:04:38;2.70;;;2.20;;
11839;SDS011;5979;50.800;4.904;2023-05-07T14:07:03;2.53;;;2.33;;
11839;SDS011;5979;50.800;4.904;2023-05-07T14:09:30;2.40;;;2.10;;
11839;SDS011;5979;50.800;4.904;2023-05-07T14:11:55;2.42;;;2.15;;
11839;SDS011;5979;50.800;4.904;2023-05-07T14:14:21;2.33;;;2.10;;
11839;SDS011;5979;50.800;4.904;2023-05-07T14:16:46;1.90;;;1.80;;
11839;SDS011;5979;50.800;4.904;2023-05-07T14:19:12;2.13;;;2.00;;
11839;SDS011;5979;50.800;4.904;2023-05-07T14:21:38;2.08;;;1.92;;
11839;SDS011;5979;50.800;4.904;2023-05-07T14:24:05;2.53;;;2.13;;
11839;SDS011;5979;50.800;4.904;2023-05-07T14:26:32;2.55;;;2.15;;
11839;SDS011;5979;50.800;4.904;2023-05-07T14:28:58;2.17;;;2.05;;
11839;SDS011;5979;50.800;4.904;2023-05-07T14:31:24;2.45;;;2.00;;
11839;SDS011;5979;50.800;4.904;2023-05-07T14:33:50;2.17;;;1.92;;
11839;SDS011;5979;50.800;4.904;2023-05-07T14:36:17;3.13;;;2.17;;
11839;SDS011;5979;50.800;4.904;2023-05-07T14:38:45;2.47;;;2.38;;
11839;SDS011;5979;50.800;4.904;2023-05-07T14:41:11;2.10;;;2.00;;
11839;SDS011;5979;50.800;4.904;2023-05-07T14:43:36;2.20;;;2.10;;
11839;SDS011;5979;50.800;4.904;2023-05-07T14:46:02;2.03;;;1.90;;
11839;SDS011;5979;50.800;4.904;2023-05-07T14:48:28;2.17;;;2.00;;
11839;SDS011;5979;50.800;4.904;2023-05-07T14:50:54;2.90;;;1.85;;
11839;SDS011;5979;50.800;4.904;2023-05-07T14:53:19;2.28;;;2.00;;
11839;SDS011;5979;50.800;4.904;2023-05-07T14:55:46;2.03;;;1.92;;
11839;SDS011;5979;50.800;4.904;2023-05-07T14:58:13;2.13;;;2.00;;
11839;SDS011;5979;50.800;4.904;2023-05-07T15:00:39;1.95;;;1.83;;
11839;SDS011;5979;50.800;4.904;2023-05-07T15:03:05;2.17;;;1.98;;
11839;SDS011;5979;50.800;4.904;2023-05-07T15:05:33;2.20;;;2.00;;
11839;SDS011;5979;50.800;4.904;2023-05-07T15:07:59;3.20;;;2.28;;
11839;SDS011;5979;50.800;4.904;2023-05-07T15:10:25;3.55;;;2.33;;
11839;SDS011;5979;50.800;4.904;2023-05-07T15:12:51;3.10;;;2.10;;
11839;SDS011;5979;50.800;4.904;2023-05-07T15:15:16;3.28;;;2.10;;